Cleves, OH

10:51 AM EST on March 01, 2015 (GMT -0500)
Cleves | Change Station
CLOSE
Current Station
Personal Weather Station
Location: Cleves, OH
Elevation: 719 ft
Nearby Weather Stations

Elev 719 ft 39.21 °N, 84.69 °W | Updated 40 seconds ago

Snow
Snow
31.3 °F
Feels Like 31 °F
N
0.0
Wind Variable Wind from SSE
Gusts 1.0 mph

Today
High -- | Low -- °F
--% Chance of Precip.
Yesterday
High -- | Low -- °F
Precip. -- in
7:11 AM 6:31 PM
Waxing Gibbous, 85% visible
Pressure 30.34 in
Visibility 7.0 miles
Clouds Overcast 2700 ft
Windchill 31 °F
Dew Point 30 °F
Humidity 93%
Rainfall 0.00 in
Snow Depth Not available.
UV 1 out of 12
Pollen .70 out of 12
Air Quality Not available.
Flu Activity Not available.
SPECI KCVG 011516Z 17005KT 7SM -RA OVC027 01/M03 A3034 RMK AO2 RAB15FZDZE15SNB00E15 P0000

More Conditions Fewer Conditions

Pressure 30.34 in
Visibility 7.0 miles
Clouds Overcast 2700 ft
Windchill 31 °F
Dew Point 30 °F
Humidity 93%
Rainfall 0.00 in
Snow Depth Not available.
UV 1 out of 12
Pollen .70 out of 12
Air Quality Not available.
Flu Activity Not available.
SPECI KCVG 011516Z 17005KT 7SM -RA OVC027 01/M03 A3034 RMK AO2 RAB15FZDZE15SNB00E15 P0000

More Conditions Fewer Conditions

10-Day Weather Forecast

Almanac

Astronomy

Mar. 01, 2015 Rise Set
Actual Time
Civil Twilight
Nautical Twilight
Astronomical Twilight
Moon
Length of Visible Light
Length of Day
Tomorrow will be .
, % of the Moon is Illuminated

Today's Extremes

State Highs State Lows

Community

WunderPhotos

Upload Photos

1,801,435 photos uploaded!

WunderBlogs® & News

Nearby

Air Quality

  Air Quality AQ Index Pollutant
Not available.

Snow Depth

Station Depth Elevation

Earthquake Activity

City Distance Mag. Time & Date
Minimum magnitude displayed is 2.5.

Coastal Water Temperatures

Place Temperature

Nearby Weather Stations

Special Statement
Statement as of 9:44 AM EST on March 01, 2015

... Snow to end quickly this morning...

Accumulating snowfall will end by 10:00 with less than a quarter
inch of additional accumulation expected on the east end of the
Cincinnati Metro area. Temperatures will warm up later this
morning and any future showers are expected to be primarily
rain... though a few flakes or sleet... or patchy freezing rain
cannot be ruled out entirely through about noon.

Motorists are urged to be very cautious of Road conditions today.